Time;durP1;ratioP1;P1;durP2;ratioP2;P2;SDS_P1;SDS_P2;PMS_P1;PMS_P2;Temp;Humidity;BMP_temperature;BMP_pressure;BME280_temperature;BME280_humidity;BME280_pressure;Samples;Min_cycle;Max_cycle;Signal;HPM_P1;HPM_P2
2020/12/29 00:01:38;;;;;;;2.83;0.10;;;17.80;61.10;;;;;;4858298;29;20417;-51
2020/12/29 00:04:07;;;;;;;0.30;0.20;;;17.90;61.00;;;;;;4857545;29;20144;-52
2020/12/29 00:06:33;;;;;;;0.35;0.10;;;17.80;60.90;;;;;;4853870;29;20053;-49
2020/12/29 00:09:00;;;;;;;1.15;0.20;;;17.90;60.90;;;;;;4855299;29;20072;-52
2020/12/29 00:11:27;;;;;;;0.10;0.10;;;17.80;60.90;;;;;;4861619;29;20049;-55
2020/12/29 00:13:53;;;;;;;1.85;0.20;;;17.90;60.90;;;;;;4856493;29;20512;-54
2020/12/29 00:16:20;;;;;;;2.60;0.35;;;17.90;60.80;;;;;;4853470;29;20045;-55
2020/12/29 00:18:47;;;;;;;0.77;0.30;;;17.90;60.70;;;;;;4854415;29;20045;-55
2020/12/29 00:21:19;;;;;;;0.20;0.10;;;17.80;60.60;;;;;;4856522;29;20053;-55
2020/12/29 00:23:46;;;;;;;0.20;0.20;;;17.90;60.60;;;;;;4858734;29;20077;-54
2020/12/29 00:26:13;;;;;;;1.08;0.28;;;17.80;60.60;;;;;;4859687;29;20107;-55
2020/12/29 00:28:39;;;;;;;1.45;0.20;;;17.80;60.70;;;;;;4866391;29;20402;-53
2020/12/29 00:31:06;;;;;;;0.75;0.30;;;17.80;60.60;;;;;;4861878;29;20584;-54
2020/12/29 00:33:33;;;;;;;0.43;0.35;;;17.80;60.50;;;;;;4865801;29;20076;-52
2020/12/29 00:36:01;;;;;;;1.00;0.40;;;17.80;61.10;;;;;;4862567;29;20128;-54
2020/12/29 00:38:27;;;;;;;0.25;0.20;;;17.90;60.60;;;;;;4865284;29;20049;-54
2020/12/29 00:40:54;;;;;;;1.38;0.25;;;17.90;60.50;;;;;;4854583;29;20056;-54
2020/12/29 00:43:20;;;;;;;0.70;0.30;;;17.80;60.50;;;;;;4863212;29;20077;-54
2020/12/29 00:45:47;;;;;;;0.52;0.40;;;17.80;60.50;;;;;;4860685;29;20100;-53
2020/12/29 00:48:13;;;;;;;0.95;0.10;;;17.80;60.50;;;;;;4852316;29;20060;-54
2020/12/29 00:50:40;;;;;;;0.30;0.20;;;17.90;60.50;;;;;;4857560;29;20534;-54
2020/12/29 00:53:08;;;;;;;9.63;0.30;;;17.80;60.50;;;;;;4842109;29;20049;-52
2020/12/29 00:55:40;;;;;;;1.90;0.30;;;17.80;60.60;;;;;;4848648;29;20049;-50
2020/12/29 00:58:07;;;;;;;1.65;0.40;;;17.80;60.70;;;;;;4849270;29;20537;-51
2020/12/29 01:00:35;;;;;;;0.22;0.22;;;17.80;60.70;;;;;;4848812;29;20109;-54
2020/12/29 01:03:03;;;;;;;0.90;0.20;;;17.80;60.70;;;;;;4863865;29;20057;-55
2020/12/29 01:05:29;;;;;;;0.47;0.20;;;17.80;60.70;;;;;;4867083;29;20044;-55
2020/12/29 01:08:00;;;;;;;1.17;0.30;;;17.80;60.60;;;;;;4838462;29;20056;-53
2020/12/29 01:10:30;;;;;;;0.45;0.28;;;17.80;60.60;;;;;;4832540;29;20054;-52
2020/12/29 01:13:15;;;;;;;2.38;0.35;;;17.80;60.60;;;;;;4846719;29;20053;-55
2020/12/29 01:15:46;;;;;;;3.00;0.20;;;17.80;60.50;;;;;;4837343;29;20527;-55
2020/12/29 01:18:13;;;;;;;0.30;0.20;;;17.80;60.40;;;;;;4823588;29;20454;-55
2020/12/29 01:20:40;;;;;;;0.35;0.30;;;17.80;60.40;;;;;;4857149;29;20160;-54
2020/12/29 01:23:06;;;;;;;2.50;0.30;;;17.80;60.40;;;;;;4827403;29;20102;-56
2020/12/29 01:25:33;;;;;;;0.90;0.25;;;17.80;60.50;;;;;;4848502;29;20055;-52
2020/12/29 01:28:00;;;;;;;0.80;0.32;;;17.80;60.40;;;;;;4853498;29;20073;-55
2020/12/29 01:30:27;;;;;;;0.85;0.35;;;17.80;60.30;;;;;;4853597;29;20124;-55
2020/12/29 01:32:53;;;;;;;2.15;0.30;;;17.80;60.20;;;;;;4839378;29;20113;-54
2020/12/29 01:35:20;;;;;;;0.20;0.20;;;17.80;60.20;;;;;;4854766;29;20041;-54
2020/12/29 01:37:47;;;;;;;1.35;0.40;;;17.80;60.50;;;;;;4852904;29;20687;-54
2020/12/29 01:40:14;;;;;;;0.30;0.28;;;17.80;60.40;;;;;;4854703;29;20049;-53
2020/12/29 01:42:42;;;;;;;0.30;0.30;;;17.80;60.20;;;;;;4854074;29;20105;-54
2020/12/29 01:45:10;;;;;;;1.45;0.43;;;17.80;60.20;;;;;;4854078;29;20088;-55
2020/12/29 01:47:41;;;;;;;0.45;0.30;;;17.80;60.10;;;;;;4855925;29;20072;-54
2020/12/29 01:50:10;;;;;;;0.30;0.17;;;17.80;60.10;;;;;;4853423;29;20423;-52
2020/12/29 01:52:37;;;;;;;0.40;0.20;;;17.70;60.20;;;;;;4853794;29;20133;-54
2020/12/29 01:55:05;;;;;;;0.60;0.20;;;17.70;60.40;;;;;;4857354;29;20053;-53
2020/12/29 01:57:33;;;;;;;3.33;0.50;;;17.80;60.40;;;;;;4856997;29;20140;-55
2020/12/29 02:00:01;;;;;;;2.50;0.28;;;17.70;60.50;;;;;;4855111;29;20073;-53
2020/12/29 02:02:30;;;;;;;0.52;0.52;;;17.70;60.50;;;;;;4854968;29;20050;-54
2020/12/29 02:04:57;;;;;;;1.85;0.30;;;17.70;60.70;;;;;;4852380;29;20129;-52
2020/12/29 02:07:23;;;;;;;0.45;0.45;;;17.70;60.70;;;;;;4852823;29;20046;-55
2020/12/29 02:09:50;;;;;;;1.20;0.20;;;17.70;60.80;;;;;;4853056;29;20133;-57
2020/12/29 02:12:25;;;;;;;1.05;0.20;;;17.70;60.90;;;;;;4839158;29;20129;-55
2020/12/29 02:14:52;;;;;;;0.40;0.32;;;17.80;60.90;;;;;;4853047;29;20080;-56
2020/12/29 02:17:19;;;;;;;1.58;0.17;;;17.70;60.80;;;;;;4854434;29;20096;-57
2020/12/29 02:19:46;;;;;;;2.53;0.40;;;17.70;60.80;;;;;;4855861;29;20137;-56
2020/12/29 02:22:18;;;;;;;0.73;0.20;;;17.70;60.80;;;;;;4856568;29;20049;-55
2020/12/29 02:24:49;;;;;;;0.65;0.10;;;17.70;60.80;;;;;;4857042;29;20061;-55
2020/12/29 02:27:16;;;;;;;0.30;0.20;;;17.70;60.80;;;;;;4857556;29;20057;-55
2020/12/29 02:29:43;;;;;;;0.50;0.30;;;17.70;60.70;;;;;;4859156;29;20141;-56
2020/12/29 02:32:09;;;;;;;0.40;0.28;;;17.70;60.60;;;;;;4856724;29;20045;-57
2020/12/29 02:34:37;;;;;;;2.58;0.65;;;17.60;60.50;;;;;;4856209;29;20132;-54
2020/12/29 02:37:05;;;;;;;2.35;0.63;;;17.70;60.60;;;;;;4858730;29;20050;-53
2020/12/29 02:39:33;;;;;;;0.50;0.50;;;17.60;60.40;;;;;;4856640;29;20042;-52
2020/12/29 02:42:00;;;;;;;0.20;0.10;;;17.70;60.30;;;;;;4859354;29;20707;-52
2020/12/29 02:44:27;;;;;;;1.08;0.40;;;17.60;60.30;;;;;;4860311;29;20112;-55
2020/12/29 02:46:54;;;;;;;0.82;0.20;;;17.70;60.30;;;;;;4858270;29;20714;-54
2020/12/29 02:49:20;;;;;;;2.17;0.70;;;17.60;60.10;;;;;;4857147;29;20128;-54
2020/12/29 02:51:47;;;;;;;0.73;0.15;;;17.60;59.90;;;;;;4857912;29;20050;-55
2020/12/29 02:54:14;;;;;;;0.50;0.10;;;17.70;60.00;;;;;;4856054;29;20510;-56
2020/12/29 02:56:42;;;;;;;4.30;0.40;;;17.60;60.00;;;;;;4860722;29;20154;-53
2020/12/29 02:59:09;;;;;;;0.10;0.10;;;17.70;59.90;;;;;;4856215;29;20050;-53
2020/12/29 03:01:36;;;;;;;0.40;0.20;;;17.70;60.00;;;;;;4856029;29;20049;-55
2020/12/29 03:04:02;;;;;;;0.95;0.20;;;17.70;59.80;;;;;;4839574;29;20064;-54
2020/12/29 03:06:30;;;;;;;1.55;0.10;;;17.60;59.70;;;;;;4856182;29;20124;-56
2020/12/29 03:08:57;;;;;;;0.30;0.10;;;17.60;59.60;;;;;;4858474;29;20045;-55
2020/12/29 03:11:25;;;;;;;0.25;0.20;;;17.60;59.70;;;;;;4859614;29;20045;-56
2020/12/29 03:13:54;;;;;;;0.90;0.20;;;17.60;59.80;;;;;;4856617;29;20475;-55
2020/12/29 03:16:21;;;;;;;0.65;0.50;;;17.60;59.80;;;;;;4856126;29;20138;-56
2020/12/29 03:18:47;;;;;;;0.35;0.10;;;17.60;59.70;;;;;;4855354;29;20046;-57
2020/12/29 03:21:14;;;;;;;0.30;0.15;;;17.60;59.60;;;;;;4857255;29;20156;-56
2020/12/29 03:23:40;;;;;;;0.50;0.10;;;17.60;59.60;;;;;;4862111;29;20076;-55
2020/12/29 03:26:07;;;;;;;0.20;0.10;;;17.60;59.50;;;;;;4858219;29;20505;-55
2020/12/29 03:28:34;;;;;;;0.47;0.10;;;17.60;59.40;;;;;;4855669;29;20140;-54
2020/12/29 03:31:01;;;;;;;0.30;0.10;;;17.60;59.40;;;;;;4855566;29;20144;-54
2020/12/29 03:33:28;;;;;;;0.20;0.10;;;17.60;59.50;;;;;;4855731;29;20050;-56
2020/12/29 03:35:55;;;;;;;0.20;0.10;;;17.60;59.50;;;;;;4856818;29;20049;-53
2020/12/29 03:38:21;;;;;;;0.20;0.10;;;17.60;59.50;;;;;;4841541;29;20092;-51
2020/12/29 03:40:49;;;;;;;0.38;0.10;;;17.60;59.60;;;;;;4862680;29;20589;-55
2020/12/29 03:43:16;;;;;;;0.50;0.40;;;17.60;59.70;;;;;;4855471;29;20061;-50
2020/12/29 03:45:43;;;;;;;1.20;0.20;;;17.60;59.60;;;;;;4855094;29;20522;-51
2020/12/29 03:48:13;;;;;;;0.40;0.20;;;17.60;59.50;;;;;;4855809;29;20060;-55
2020/12/29 03:50:41;;;;;;;0.30;0.20;;;17.60;59.50;;;;;;4858007;29;20086;-52
2020/12/29 03:53:08;;;;;;;0.40;0.20;;;17.60;59.40;;;;;;4857142;29;20045;-54
2020/12/29 03:55:35;;;;;;;0.30;0.10;;;17.60;59.40;;;;;;4859486;29;20056;-53
2020/12/29 03:58:02;;;;;;;0.20;0.10;;;17.60;59.20;;;;;;4842720;29;20120;-54
2020/12/29 04:00:28;;;;;;;0.20;0.15;;;17.60;59.20;;;;;;4841812;29;20124;-54
2020/12/29 04:02:55;;;;;;;0.52;0.30;;;17.60;59.20;;;;;;4857348;29;20056;-54
2020/12/29 04:05:22;;;;;;;0.30;0.10;;;17.60;59.20;;;;;;4858713;29;20045;-50
2020/12/29 04:07:49;;;;;;;0.30;0.30;;;17.60;59.10;;;;;;4857755;29;20057;-55
2020/12/29 04:10:18;;;;;;;0.20;0.20;;;17.60;58.90;;;;;;4857496;29;20057;-55
2020/12/29 04:12:44;;;;;;;0.28;0.17;;;17.60;59.00;;;;;;4858193;29;20050;-55
2020/12/29 04:15:11;;;;;;;0.55;0.20;;;17.50;59.00;;;;;;4856913;29;20105;-56
2020/12/29 04:17:39;;;;;;;0.93;0.20;;;17.60;59.00;;;;;;4859157;29;20053;-54
2020/12/29 04:20:08;;;;;;;0.65;0.20;;;17.60;59.00;;;;;;4857555;29;20501;-55
2020/12/29 04:22:37;;;;;;;1.10;0.13;;;17.60;58.80;;;;;;4856810;29;20057;-56
2020/12/29 04:25:05;;;;;;;0.30;0.30;;;17.50;58.80;;;;;;4857660;29;20104;-54
2020/12/29 04:27:32;;;;;;;0.20;0.17;;;17.60;59.00;;;;;;4857841;29;20225;-55
2020/12/29 04:29:59;;;;;;;0.65;0.20;;;17.50;58.90;;;;;;4857969;29;20384;-53
2020/12/29 04:32:25;;;;;;;0.30;0.13;;;17.50;58.90;;;;;;4842113;29;20046;-54
2020/12/29 04:34:53;;;;;;;0.35;0.13;;;17.60;58.90;;;;;;4857058;29;20045;-56
2020/12/29 04:37:19;;;;;;;0.20;0.10;;;17.50;58.90;;;;;;4857630;29;20590;-55
2020/12/29 04:39:47;;;;;;;0.20;0.10;;;17.50;59.00;;;;;;4857771;29;20042;-55
2020/12/29 04:42:15;;;;;;;0.20;0.13;;;17.50;59.00;;;;;;4856494;29;20056;-56
2020/12/29 04:44:43;;;;;;;1.20;0.15;;;17.50;59.00;;;;;;4858104;29;20069;-52
2020/12/29 04:47:11;;;;;;;0.47;0.20;;;17.50;58.90;;;;;;4856558;29;20053;-55
2020/12/29 04:49:38;;;;;;;0.22;0.22;;;17.50;58.90;;;;;;4856650;29;20544;-55
2020/12/29 04:52:06;;;;;;;0.75;0.10;;;17.50;58.90;;;;;;4853891;29;20517;-55
2020/12/29 04:54:35;;;;;;;0.25;0.10;;;17.50;58.80;;;;;;4847431;29;20046;-54
2020/12/29 04:57:04;;;;;;;0.20;0.20;;;17.60;58.90;;;;;;4847735;29;20090;-54
2020/12/29 04:59:31;;;;;;;0.40;0.20;;;17.50;58.80;;;;;;4849242;29;20056;-55
2020/12/29 05:01:59;;;;;;;0.70;0.10;;;17.50;58.70;;;;;;4835557;29;21291;-56
2020/12/29 05:04:26;;;;;;;0.57;0.50;;;17.50;58.70;;;;;;4832467;29;20414;-56
2020/12/29 05:06:53;;;;;;;0.30;0.10;;;17.50;58.60;;;;;;4830414;29;20053;-55
2020/12/29 05:09:20;;;;;;;0.17;0.17;;;17.50;58.70;;;;;;4825201;29;20062;-54
2020/12/29 05:11:47;;;;;;;0.10;0.10;;;17.50;58.80;;;;;;4827634;29;20068;-55
2020/12/29 05:14:14;;;;;;;0.85;0.10;;;17.50;58.80;;;;;;4820774;29;20053;-52
2020/12/29 05:16:42;;;;;;;0.82;0.10;;;17.60;58.80;;;;;;4817416;29;20061;-54
2020/12/29 05:19:10;;;;;;;0.10;0.10;;;17.60;58.80;;;;;;4817881;29;20749;-57
2020/12/29 05:21:38;;;;;;;0.50;0.17;;;17.60;58.70;;;;;;4820462;29;20157;-54
2020/12/29 05:24:12;;;;;;;0.28;0.10;;;17.50;58.60;;;;;;4831822;29;20053;-55
2020/12/29 05:26:39;;;;;;;0.68;0.10;;;17.60;58.70;;;;;;4832794;29;20743;-54
2020/12/29 05:29:07;;;;;;;0.35;0.10;;;17.50;58.60;;;;;;4832994;29;20157;-54
2020/12/29 05:31:36;;;;;;;0.88;0.10;;;17.50;58.60;;;;;;4844005;29;20052;-54
2020/12/29 05:34:04;;;;;;;0.20;0.15;;;17.50;58.70;;;;;;4849657;29;20072;-54
2020/12/29 05:36:36;;;;;;;0.10;0.10;;;17.60;58.70;;;;;;4850591;29;20055;-51
2020/12/29 05:39:08;;;;;;;1.27;0.10;;;17.60;58.60;;;;;;4854231;29;20050;-55
2020/12/29 05:41:39;;;;;;;0.65;0.10;;;17.50;58.60;;;;;;4854774;29;20049;-55
2020/12/29 05:44:07;;;;;;;0.15;0.10;;;17.50;58.50;;;;;;4855609;29;20414;-54
2020/12/29 05:46:35;;;;;;;0.20;0.00;;;17.50;58.40;;;;;;4840012;29;20155;-55
2020/12/29 05:49:01;;;;;;;0.13;0.10;;;17.50;58.40;;;;;;4856778;29;20081;-54
2020/12/29 05:51:28;;;;;;;0.68;0.10;;;17.50;58.20;;;;;;4856884;29;20428;-55
2020/12/29 05:54:00;;;;;;;0.32;0.10;;;17.50;58.20;;;;;;4859025;29;20114;-54
2020/12/29 05:56:31;;;;;;;0.10;0.10;;;17.50;58.20;;;;;;4861654;29;20132;-54
2020/12/29 05:59:00;;;;;;;0.00;0.00;;;17.50;58.20;;;;;;4843791;29;20144;-54
2020/12/29 06:01:41;;;;;;;0.20;0.10;;;17.50;58.20;;;;;;4860458;29;20041;-55
2020/12/29 06:04:08;;;;;;;0.28;0.10;;;17.60;58.30;;;;;;4859939;29;20144;-55
2020/12/29 06:06:37;;;;;;;1.33;0.10;;;17.50;58.10;;;;;;4860331;29;20120;-53
2020/12/29 06:09:06;;;;;;;0.35;0.05;;;17.50;58.10;;;;;;4860610;29;20076;-54
2020/12/29 06:11:45;;;;;;;0.73;0.10;;;17.50;57.90;;;;;;4857668;29;20060;-55
2020/12/29 06:14:14;;;;;;;0.25;0.25;;;17.50;58.40;;;;;;4860089;29;20101;-55
2020/12/29 06:16:43;;;;;;;0.68;0.10;;;17.50;57.80;;;;;;4866384;29;20052;-54
2020/12/29 06:19:26;;;;;;;1.65;0.10;;;17.50;57.80;;;;;;4869584;29;20064;-51
2020/12/29 06:22:06;;;;;;;1.25;0.10;;;17.50;57.80;;;;;;4849038;29;20109;-55
2020/12/29 06:24:35;;;;;;;0.63;0.10;;;17.50;57.90;;;;;;4866249;29;20053;-54
2020/12/29 06:27:04;;;;;;;0.30;0.00;;;17.50;57.90;;;;;;4869095;29;20510;-55
2020/12/29 06:29:36;;;;;;;0.10;0.10;;;17.50;58.00;;;;;;4870947;29;20093;-54
2020/12/29 06:32:11;;;;;;;1.30;0.00;;;17.50;58.00;;;;;;4868926;29;20049;-53
2020/12/29 06:34:38;;;;;;;3.72;0.10;;;17.50;58.10;;;;;;4860277;29;20514;-53
2020/12/29 06:37:23;;;;;;;0.10;0.10;;;17.40;58.10;;;;;;4863148;29;20158;-56
2020/12/29 06:39:53;;;;;;;1.05;0.10;;;17.50;58.20;;;;;;4864211;29;20127;-51
2020/12/29 06:42:21;;;;;;;0.15;0.10;;;17.50;58.30;;;;;;4862891;29;20045;-54
2020/12/29 06:44:54;;;;;;;0.63;0.03;;;17.40;58.20;;;;;;4873023;29;20080;-52
2020/12/29 06:47:24;;;;;;;0.20;0.10;;;17.50;58.20;;;;;;4860047;29;20045;-51
2020/12/29 06:49:51;;;;;;;3.38;0.10;;;17.40;58.20;;;;;;4858604;29;20113;-53
2020/12/29 06:52:28;;;;;;;0.10;0.05;;;17.50;58.20;;;;;;4859226;29;20061;-52
2020/12/29 06:54:56;;;;;;;0.10;0.00;;;17.50;58.20;;;;;;4857677;29;20060;-54
2020/12/29 06:57:25;;;;;;;0.32;0.10;;;17.40;58.10;;;;;;4860441;29;20503;-51
2020/12/29 06:59:51;;;;;;;0.70;0.00;;;17.40;58.00;;;;;;4869495;29;20045;-52
2020/12/29 07:02:20;;;;;;;0.68;0.05;;;17.50;58.10;;;;;;4868307;29;20463;-54
2020/12/29 07:04:52;;;;;;;0.00;0.00;;;17.40;58.10;;;;;;4863614;29;20046;-56
2020/12/29 07:07:23;;;;;;;0.20;0.05;;;17.50;58.10;;;;;;4867704;29;20068;-55
2020/12/29 07:09:50;;;;;;;0.40;0.10;;;17.40;57.90;;;;;;4865337;29;20109;-52
2020/12/29 07:12:18;;;;;;;0.38;0.00;;;17.40;57.80;;;;;;4866839;29;20057;-56
2020/12/29 07:14:52;;;;;;;0.10;0.10;;;17.50;57.80;;;;;;4869561;29;20053;-53
2020/12/29 07:17:24;;;;;;;1.85;0.10;;;17.50;57.70;;;;;;4867710;29;20506;-53
2020/12/29 07:19:55;;;;;;;2.88;0.03;;;17.40;57.60;;;;;;4861232;29;20098;-52
2020/12/29 07:22:21;;;;;;;12.35;0.60;;;17.40;57.80;;;;;;4859660;29;20477;-56
2020/12/29 07:24:49;;;;;;;1.52;0.00;;;17.40;58.20;;;;;;4854922;29;20133;-55
2020/12/29 07:27:19;;;;;;;2.42;0.13;;;17.40;58.60;;;;;;4854270;29;20184;-57
2020/12/29 07:29:54;;;;;;;0.28;0.00;;;17.40;58.90;;;;;;4855567;29;20516;-56
2020/12/29 07:32:21;;;;;;;2.30;0.00;;;17.50;59.40;;;;;;4855509;29;20422;-55
2020/12/29 07:34:48;;;;;;;5.55;0.20;;;17.40;59.30;;;;;;4854694;29;20430;-55
2020/12/29 07:37:19;;;;;;;6.38;0.10;;;17.50;59.60;;;;;;4844573;29;20522;-56
2020/12/29 07:39:46;;;;;;;0.40;0.10;;;17.50;59.90;;;;;;4852257;29;20544;-53
2020/12/29 07:42:14;;;;;;;0.10;0.00;;;17.50;59.80;;;;;;4849472;29;20089;-51
2020/12/29 07:44:43;;;;;;;2.28;0.00;;;17.50;59.80;;;;;;4835847;29;20083;-57
2020/12/29 07:47:10;;;;;;;0.22;0.05;;;17.50;59.90;;;;;;4851822;29;20064;-52
2020/12/29 07:49:37;;;;;;;0.00;0.00;;;17.60;60.00;;;;;;4851413;29;20553;-55
2020/12/29 07:52:04;;;;;;;0.22;0.00;;;17.60;60.00;;;;;;4854172;29;20101;-51
2020/12/29 07:54:32;;;;;;;1.73;0.10;;;17.60;60.10;;;;;;4855578;29;20422;-54
2020/12/29 07:56:59;;;;;;;0.65;0.05;;;17.60;60.10;;;;;;4855821;29;20475;-56
2020/12/29 07:59:26;;;;;;;0.47;0.00;;;17.60;60.10;;;;;;4856927;29;20054;-55
2020/12/29 08:01:55;;;;;;;2.50;0.10;;;17.70;60.00;;;;;;4855875;29;20049;-55
2020/12/29 08:04:29;;;;;;;0.38;0.00;;;17.70;60.10;;;;;;4855621;29;20088;-55
2020/12/29 08:06:56;;;;;;;1.15;0.10;;;17.70;60.20;;;;;;4855157;29;20080;-55
2020/12/29 08:09:23;;;;;;;0.47;0.00;;;17.70;60.00;;;;;;4856049;29;20213;-53
2020/12/29 08:11:51;;;;;;;0.20;0.10;;;17.70;60.00;;;;;;4858590;29;20049;-55
2020/12/29 08:14:18;;;;;;;0.57;0.10;;;17.80;60.10;;;;;;4865739;29;20163;-54
2020/12/29 08:16:45;;;;;;;0.70;0.00;;;17.80;60.10;;;;;;4864995;29;20525;-54
2020/12/29 08:19:11;;;;;;;1.05;0.20;;;17.80;60.20;;;;;;4862968;29;20132;-56
2020/12/29 08:21:39;;;;;;;2.20;0.10;;;17.80;60.10;;;;;;4860080;29;20137;-55
2020/12/29 08:24:06;;;;;;;3.97;0.20;;;17.80;60.20;;;;;;4866654;29;20105;-55
2020/12/29 08:26:34;;;;;;;2.72;0.30;;;17.80;55.90;;;;;;4859283;29;20056;-54
2020/12/29 08:29:04;;;;;;;2.28;0.50;;;17.80;53.10;;;;;;4857838;29;20054;-56
2020/12/29 08:31:31;;;;;;;4.63;0.90;;;17.80;51.30;;;;;;4857933;29;20518;-56
2020/12/29 08:33:59;;;;;;;1.85;0.40;;;17.80;50.00;;;;;;4857337;29;20113;-54
2020/12/29 08:36:27;;;;;;;2.15;0.30;;;17.70;48.90;;;;;;4862511;29;20434;-56
2020/12/29 08:39:27;;;;;;;0.77;0.10;;;17.60;51.40;;;;;;4860219;29;20053;-54
2020/12/29 08:41:57;;;;;;;1.77;0.20;;;17.50;53.40;;;;;;4786041;29;20055;-55
2020/12/29 08:44:27;;;;;;;3.50;0.25;;;17.40;54.70;;;;;;4788427;29;20773;-54
2020/12/29 08:46:55;;;;;;;1.75;0.20;;;17.40;55.40;;;;;;4785804;29;20063;-54
2020/12/29 08:49:29;;;;;;;3.83;0.30;;;17.40;55.90;;;;;;4775992;29;20061;-54
2020/12/29 08:51:55;;;;;;;1.85;0.10;;;17.50;56.40;;;;;;4777862;29;20112;-53
2020/12/29 08:54:23;;;;;;;2.78;0.43;;;17.40;56.30;;;;;;4786691;29;20540;-54
2020/12/29 08:56:49;;;;;;;1.27;0.20;;;17.50;56.60;;;;;;4787323;29;20409;-52
2020/12/29 08:59:17;;;;;;;4.40;0.20;;;17.50;56.70;;;;;;4786110;29;20058;-54
2020/12/29 09:01:45;;;;;;;0.35;0.20;;;17.50;56.80;;;;;;4773524;29;20092;-57
2020/12/29 09:04:24;;;;;;;1.50;0.20;;;17.50;57.00;;;;;;4784367;29;20051;-54
2020/12/29 09:06:59;;;;;;;3.25;0.20;;;17.60;57.20;;;;;;4781985;29;20055;-54
2020/12/29 09:09:26;;;;;;;1.08;0.17;;;17.60;57.20;;;;;;4778909;29;20487;-55
2020/12/29 09:12:08;;;;;;;0.85;0.73;;;17.60;57.00;;;;;;4788030;29;20124;-55
2020/12/29 09:14:35;;;;;;;7.00;0.50;;;17.60;57.20;;;;;;4786179;29;20529;-56
2020/12/29 09:17:04;;;;;;;0.77;0.10;;;17.60;57.00;;;;;;4857412;29;20142;-54
2020/12/29 09:19:31;;;;;;;2.45;0.22;;;17.60;57.10;;;;;;4861655;29;20421;-57
2020/12/29 09:22:06;;;;;;;5.35;0.20;;;17.60;57.00;;;;;;4861731;29;20132;-55
2020/12/29 09:24:33;;;;;;;1.40;0.20;;;17.70;57.90;;;;;;4851139;29;20072;-56
2020/12/29 09:27:00;;;;;;;0.45;0.10;;;17.60;57.10;;;;;;4858392;29;20302;-55
2020/12/29 09:29:27;;;;;;;0.38;0.20;;;17.70;57.30;;;;;;4863292;29;20051;-54
2020/12/29 09:31:55;;;;;;;0.40;0.10;;;17.70;57.70;;;;;;4860535;29;20057;-57
2020/12/29 09:34:23;;;;;;;1.92;0.22;;;17.70;57.70;;;;;;4849323;29;20433;-55
2020/12/29 09:36:49;;;;;;;2.05;0.30;;;17.70;57.50;;;;;;4849272;29;20060;-55
2020/12/29 09:39:16;;;;;;;1.00;0.22;;;17.80;57.30;;;;;;4839789;29;20058;-56
2020/12/29 09:41:43;;;;;;;3.30;1.05;;;17.80;57.20;;;;;;4844966;29;20053;-57
2020/12/29 09:44:09;;;;;;;4.10;0.20;;;17.80;57.20;;;;;;4842568;29;20057;-57
2020/12/29 09:46:37;;;;;;;2.22;0.30;;;17.80;57.10;;;;;;4845439;29;20065;-51
2020/12/29 09:49:04;;;;;;;1.20;0.30;;;17.80;57.30;;;;;;4842199;29;20069;-54
2020/12/29 09:51:32;;;;;;;1.02;0.35;;;17.80;57.30;;;;;;4843767;29;20056;-50
2020/12/29 09:53:59;;;;;;;0.52;0.10;;;17.80;57.20;;;;;;4844368;29;20050;-51
2020/12/29 09:56:26;;;;;;;0.73;0.30;;;17.80;57.20;;;;;;4843842;29;20140;-53
2020/12/29 09:58:53;;;;;;;2.60;0.10;;;17.80;57.20;;;;;;4842884;29;20056;-50
2020/12/29 10:01:20;;;;;;;0.70;0.20;;;17.90;57.30;;;;;;4843805;29;20045;-50
2020/12/29 10:03:46;;;;;;;2.95;0.38;;;17.90;57.30;;;;;;4840687;29;20056;-51
2020/12/29 10:06:15;;;;;;;1.80;0.15;;;17.90;57.40;;;;;;4846807;29;20057;-57
2020/12/29 10:08:43;;;;;;;5.78;0.43;;;17.90;57.50;;;;;;4853988;29;20084;-54
2020/12/29 10:11:11;;;;;;;4.20;0.25;;;17.90;57.80;;;;;;4854915;29;20045;-58
2020/12/29 10:13:38;;;;;;;3.00;0.22;;;17.90;57.90;;;;;;4861089;29;20132;-61
2020/12/29 10:16:05;;;;;;;2.13;0.30;;;17.90;57.50;;;;;;4858872;29;20051;-62
2020/12/29 10:18:32;;;;;;;6.78;0.30;;;17.90;57.60;;;;;;4855983;29;20053;-61
2020/12/29 10:20:59;;;;;;;8.25;0.30;;;17.90;57.50;;;;;;4852916;29;20045;-66
2020/12/29 10:23:25;;;;;;;4.03;0.40;;;17.90;57.20;;;;;;4858431;29;20145;-64
2020/12/29 10:25:53;;;;;;;6.20;0.20;;;17.90;57.20;;;;;;4858904;29;20049;-63
2020/12/29 10:28:20;;;;;;;0.55;0.22;;;18.00;57.00;;;;;;4859407;29;20525;-64
2020/12/29 10:30:48;;;;;;;0.52;0.47;;;18.00;56.90;;;;;;4860025;29;20065;-63
2020/12/29 10:33:15;;;;;;;1.42;0.20;;;18.00;56.90;;;;;;4856372;29;20064;-62
2020/12/29 10:35:42;;;;;;;2.38;0.15;;;18.00;56.70;;;;;;4859099;29;20077;-63
2020/12/29 10:38:08;;;;;;;1.73;0.60;;;18.00;56.70;;;;;;4860602;29;20050;-64
2020/12/29 10:40:35;;;;;;;13.07;0.73;;;18.00;56.70;;;;;;4861095;29;20053;-63
2020/12/29 10:43:02;;;;;;;2.53;0.20;;;18.00;56.70;;;;;;4859931;29;20042;-63
2020/12/29 10:45:29;;;;;;;2.83;0.63;;;18.00;56.80;;;;;;4860749;29;20038;-62
2020/12/29 10:47:56;;;;;;;3.22;0.68;;;18.00;56.60;;;;;;4867452;29;20050;-62
2020/12/29 10:50:22;;;;;;;2.08;0.20;;;18.00;56.50;;;;;;4868582;29;20046;-63
2020/12/29 10:52:49;;;;;;;0.68;0.20;;;18.00;56.40;;;;;;4843335;29;20077;-62
2020/12/29 10:55:16;;;;;;;6.13;0.30;;;18.00;56.30;;;;;;4865183;29;20053;-63
2020/12/29 10:57:43;;;;;;;0.73;0.45;;;18.00;56.30;;;;;;4861437;29;20042;-68
2020/12/29 11:00:10;;;;;;;2.05;0.20;;;18.00;56.30;;;;;;4858741;29;20132;-62
2020/12/29 11:02:39;;;;;;;1.17;0.20;;;18.10;56.40;;;;;;4864477;29;20053;-64
2020/12/29 11:05:05;;;;;;;1.65;0.25;;;18.10;56.40;;;;;;4859146;29;20097;-64
2020/12/29 11:07:32;;;;;;;5.15;0.40;;;18.00;56.40;;;;;;4864979;29;20514;-63
2020/12/29 11:09:58;;;;;;;2.80;0.43;;;18.10;56.40;;;;;;4869675;29;20088;-63
2020/12/29 11:12:25;;;;;;;3.08;0.63;;;18.10;56.30;;;;;;4861618;29;20774;-64
2020/12/29 11:14:53;;;;;;;4.22;0.20;;;18.10;56.40;;;;;;4865809;29;20050;-64
2020/12/29 11:17:22;;;;;;;0.90;0.30;;;18.10;56.30;;;;;;4867780;29;20064;-65
2020/12/29 11:19:49;;;;;;;8.02;0.20;;;18.10;56.30;;;;;;4862837;29;20077;-61
2020/12/29 11:22:15;;;;;;;7.75;0.43;;;18.10;56.30;;;;;;4862387;29;20056;-63
2020/12/29 11:24:43;;;;;;;1.90;0.43;;;18.10;56.10;;;;;;4858514;29;20041;-66
2020/12/29 11:27:10;;;;;;;4.90;0.45;;;18.10;56.10;;;;;;4861099;29;20057;-66
2020/12/29 11:29:37;;;;;;;0.98;0.15;;;18.10;56.10;;;;;;4862941;29;20127;-63
2020/12/29 11:32:03;;;;;;;6.32;0.63;;;18.10;56.30;;;;;;4862052;29;20109;-64
2020/12/29 11:34:31;;;;;;;2.85;0.30;;;18.10;56.30;;;;;;4854956;29;20133;-62
2020/12/29 11:36:58;;;;;;;4.47;0.10;;;18.10;56.60;;;;;;4859363;29;20057;-62
2020/12/29 11:39:24;;;;;;;2.17;0.22;;;18.10;56.40;;;;;;4862912;29;20485;-62
2020/12/29 11:41:51;;;;;;;2.28;0.65;;;18.10;56.40;;;;;;4868934;29;20124;-63
2020/12/29 11:44:18;;;;;;;2.42;0.35;;;18.10;56.40;;;;;;4866409;29;20509;-62
2020/12/29 11:46:44;;;;;;;1.17;0.30;;;18.10;56.40;;;;;;4865275;29;20072;-65
2020/12/29 11:49:11;;;;;;;1.73;0.57;;;18.10;56.80;;;;;;4866147;29;20065;-63
2020/12/29 11:51:38;;;;;;;0.82;0.10;;;18.20;57.00;;;;;;4866114;29;20065;-62
2020/12/29 11:54:05;;;;;;;3.42;0.20;;;18.10;56.80;;;;;;4866149;29;20044;-64
2020/12/29 11:56:32;;;;;;;2.35;0.20;;;18.20;56.70;;;;;;4866999;29;20049;-65
2020/12/29 11:58:59;;;;;;;1.77;0.15;;;18.20;56.70;;;;;;4867668;29;20049;-65
2020/12/29 12:01:25;;;;;;;3.65;0.10;;;18.20;56.50;;;;;;4864819;29;20101;-64
2020/12/29 12:03:52;;;;;;;2.20;0.10;;;18.20;56.70;;;;;;4863474;29;20045;-64
2020/12/29 12:06:19;;;;;;;0.57;0.30;;;18.20;56.70;;;;;;4863864;29;20064;-64
2020/12/29 12:08:49;;;;;;;1.90;0.10;;;18.20;56.90;;;;;;4865536;29;20064;-65
2020/12/29 12:11:17;;;;;;;1.60;0.20;;;18.20;56.90;;;;;;4863699;29;20487;-65
2020/12/29 12:13:44;;;;;;;0.22;0.20;;;18.20;56.90;;;;;;4863060;29;20053;-65
2020/12/29 12:16:11;;;;;;;3.35;0.10;;;18.30;56.80;;;;;;4865327;29;20049;-66
2020/12/29 12:18:38;;;;;;;1.02;0.10;;;18.30;56.80;;;;;;4865128;29;20090;-63
2020/12/29 12:21:04;;;;;;;2.08;0.20;;;18.30;56.70;;;;;;4863867;29;20132;-64
2020/12/29 12:23:32;;;;;;;1.75;0.15;;;18.30;56.60;;;;;;4867825;29;20074;-64
2020/12/29 12:25:59;;;;;;;1.27;0.10;;;18.30;56.60;;;;;;4864047;29;20049;-64
2020/12/29 12:28:27;;;;;;;0.55;0.20;;;18.30;56.60;;;;;;4864397;29;20394;-64
2020/12/29 12:30:54;;;;;;;2.92;0.10;;;18.30;56.50;;;;;;4864246;29;20414;-64
2020/12/29 12:33:21;;;;;;;1.23;0.10;;;18.30;56.60;;;;;;4864373;29;20085;-64
2020/12/29 12:35:48;;;;;;;0.65;0.10;;;18.40;56.80;;;;;;4868735;29;20052;-66
2020/12/29 12:38:14;;;;;;;0.10;0.10;;;18.40;56.50;;;;;;4864921;29;20092;-64
2020/12/29 12:40:41;;;;;;;0.52;0.15;;;18.40;56.70;;;;;;4863070;29;20506;-64
2020/12/29 12:43:08;;;;;;;4.10;0.30;;;18.40;56.80;;;;;;4856777;29;20068;-66
2020/12/29 12:45:35;;;;;;;0.10;0.10;;;18.40;56.80;;;;;;4861486;29;20049;-64
2020/12/29 12:48:02;;;;;;;0.63;0.10;;;18.50;56.70;;;;;;4856826;29;20077;-65
2020/12/29 12:50:28;;;;;;;0.40;0.10;;;18.50;56.70;;;;;;4855976;29;20060;-64